sensor_id;sensor_type;location;lat;lon;timestamp;temperature;humidity
15930;DHT22;8064;51.142;4.780;2022-08-04T00:02:57;23.60;93.50
15930;DHT22;8064;51.142;4.780;2022-08-04T00:05:30;23.50;93.50
15930;DHT22;8064;51.142;4.780;2022-08-04T00:10:50;23.50;93.60
15930;DHT22;8064;51.142;4.780;2022-08-04T00:13:22;23.40;93.50
15930;DHT22;8064;51.142;4.780;2022-08-04T00:15:51;23.40;93.50
15930;DHT22;8064;51.142;4.780;2022-08-04T00:18:20;23.30;93.50
15930;DHT22;8064;51.142;4.780;2022-08-04T00:20:48;23.30;93.60
15930;DHT22;8064;51.142;4.780;2022-08-04T00:23:16;23.20;93.60
15930;DHT22;8064;51.142;4.780;2022-08-04T00:25:42;23.10;93.60
15930;DHT22;8064;51.142;4.780;2022-08-04T00:28:09;23.10;93.70
15930;DHT22;8064;51.142;4.780;2022-08-04T00:30:35;23.00;93.80
15930;DHT22;8064;51.142;4.780;2022-08-04T00:33:01;23.00;93.90
15930;DHT22;8064;51.142;4.780;2022-08-04T00:35:28;23.00;94.00
15930;DHT22;8064;51.142;4.780;2022-08-04T00:37:54;23.00;94.10
15930;DHT22;8064;51.142;4.780;2022-08-04T00:40:22;23.00;94.30
15930;DHT22;8064;51.142;4.780;2022-08-04T00:43:12;23.00;94.30
15930;DHT22;8064;51.142;4.780;2022-08-04T00:46:13;22.90;94.10
15930;DHT22;8064;51.142;4.780;2022-08-04T00:51:49;22.80;94.10
15930;DHT22;8064;51.142;4.780;2022-08-04T01:00:18;22.50;94.50
15930;DHT22;8064;51.142;4.780;2022-08-04T01:08:19;22.40;94.70
15930;DHT22;8064;51.142;4.780;2022-08-04T01:11:23;22.30;94.80
15930;DHT22;8064;51.142;4.780;2022-08-04T01:17:05;22.20;95.00
15930;DHT22;8064;51.142;4.780;2022-08-04T01:26:12;22.10;95.60
15930;DHT22;8064;51.142;4.780;2022-08-04T01:29:07;22.10;95.50
15930;DHT22;8064;51.142;4.780;2022-08-04T01:32:04;22.10;95.60
15930;DHT22;8064;51.142;4.780;2022-08-04T01:34:38;22.10;95.70
15930;DHT22;8064;51.142;4.780;2022-08-04T01:40:00;22.10;95.80
15930;DHT22;8064;51.142;4.780;2022-08-04T01:42:28;22.00;95.80
15930;DHT22;8064;51.142;4.780;2022-08-04T01:44:59;22.00;95.80
15930;DHT22;8064;51.142;4.780;2022-08-04T01:47:28;22.00;95.90
15930;DHT22;8064;51.142;4.780;2022-08-04T01:50:02;21.90;96.40
15930;DHT22;8064;51.142;4.780;2022-08-04T01:52:30;21.80;96.20
15930;DHT22;8064;51.142;4.780;2022-08-04T01:54:57;21.80;96.30
15930;DHT22;8064;51.142;4.780;2022-08-04T01:57:24;21.80;96.30
15930;DHT22;8064;51.142;4.780;2022-08-04T01:59:52;21.80;96.40
15930;DHT22;8064;51.142;4.780;2022-08-04T02:02:21;21.80;96.50
15930;DHT22;8064;51.142;4.780;2022-08-04T02:04:48;21.70;96.60
15930;DHT22;8064;51.142;4.780;2022-08-04T02:10:03;21.70;96.60
15930;DHT22;8064;51.142;4.780;2022-08-04T02:15:41;21.60;96.90
15930;DHT22;8064;51.142;4.780;2022-08-04T02:18:23;21.50;96.90
15930;DHT22;8064;51.142;4.780;2022-08-04T02:23:40;21.50;97.10
15930;DHT22;8064;51.142;4.780;2022-08-04T02:26:24;21.50;97.20
15930;DHT22;8064;51.142;4.780;2022-08-04T02:29:02;21.50;97.40
15930;DHT22;8064;51.142;4.780;2022-08-04T02:31:46;21.50;97.40
15930;DHT22;8064;51.142;4.780;2022-08-04T02:34:43;21.50;97.50
15930;DHT22;8064;51.142;4.780;2022-08-04T02:37:15;21.60;97.50
15930;DHT22;8064;51.142;4.780;2022-08-04T02:39:43;21.50;97.40
15930;DHT22;8064;51.142;4.780;2022-08-04T02:42:11;21.40;97.40
15930;DHT22;8064;51.142;4.780;2022-08-04T02:44:38;21.40;97.60
15930;DHT22;8064;51.142;4.780;2022-08-04T02:47:05;21.40;97.70
15930;DHT22;8064;51.142;4.780;2022-08-04T02:49:35;21.40;97.80
15930;DHT22;8064;51.142;4.780;2022-08-04T02:52:02;21.40;97.90
15930;DHT22;8064;51.142;4.780;2022-08-04T02:54:34;21.40;97.90
15930;DHT22;8064;51.142;4.780;2022-08-04T02:57:03;21.40;97.90
15930;DHT22;8064;51.142;4.780;2022-08-04T02:59:47;21.40;97.90
15930;DHT22;8064;51.142;4.780;2022-08-04T03:02:26;21.40;98.00
15930;DHT22;8064;51.142;4.780;2022-08-04T03:05:12;21.30;98.00
15930;DHT22;8064;51.142;4.780;2022-08-04T03:13:50;21.30;98.10
15930;DHT22;8064;51.142;4.780;2022-08-04T03:24:56;21.30;98.00
15930;DHT22;8064;51.142;4.780;2022-08-04T03:30:35;21.30;98.10
15930;DHT22;8064;51.142;4.780;2022-08-04T03:33:23;21.20;98.00
15930;DHT22;8064;51.142;4.780;2022-08-04T03:36:29;21.20;98.20
15930;DHT22;8064;51.142;4.780;2022-08-04T03:53:28;21.00;98.30
15930;DHT22;8064;51.142;4.780;2022-08-04T03:56:24;20.90;98.30
15930;DHT22;8064;51.142;4.780;2022-08-04T03:59:05;20.90;98.30
15930;DHT22;8064;51.142;4.780;2022-08-04T04:04:38;20.80;98.40
15930;DHT22;8064;51.142;4.780;2022-08-04T04:21:19;20.60;98.80
15930;DHT22;8064;51.142;4.780;2022-08-04T04:24:15;20.60;98.90
15930;DHT22;8064;51.142;4.780;2022-08-04T04:26:54;20.70;99.00
15930;DHT22;8064;51.142;4.780;2022-08-04T04:35:45;20.80;99.10
15930;DHT22;8064;51.142;4.780;2022-08-04T04:41:20;20.90;99.20
15930;DHT22;8064;51.142;4.780;2022-08-04T04:44:13;20.90;99.20
15930;DHT22;8064;51.142;4.780;2022-08-04T04:46:47;21.00;99.30
15930;DHT22;8064;51.142;4.780;2022-08-04T04:52:39;21.10;99.30
15930;DHT22;8064;51.142;4.780;2022-08-04T04:57:58;21.20;99.20
15930;DHT22;8064;51.142;4.780;2022-08-04T05:00:33;21.20;99.10
15930;DHT22;8064;51.142;4.780;2022-08-04T05:09:31;21.40;99.10
15930;DHT22;8064;51.142;4.780;2022-08-04T05:15:00;21.50;99.00
15930;DHT22;8064;51.142;4.780;2022-08-04T05:17:46;21.60;98.90
15930;DHT22;8064;51.142;4.780;2022-08-04T05:20:15;21.70;98.90
15930;DHT22;8064;51.142;4.780;2022-08-04T05:25:37;21.80;98.80
15930;DHT22;8064;51.142;4.780;2022-08-04T05:30:37;21.90;98.80
15930;DHT22;8064;51.142;4.780;2022-08-04T05:33:13;21.90;98.80
15930;DHT22;8064;51.142;4.780;2022-08-04T05:35:43;21.90;98.70
15930;DHT22;8064;51.142;4.780;2022-08-04T05:38:11;22.00;98.80
15930;DHT22;8064;51.142;4.780;2022-08-04T05:40:38;22.00;98.80
15930;DHT22;8064;51.142;4.780;2022-08-04T05:43:05;22.10;98.80
15930;DHT22;8064;51.142;4.780;2022-08-04T05:45:33;22.10;98.80
15930;DHT22;8064;51.142;4.780;2022-08-04T05:48:01;22.20;98.80
15930;DHT22;8064;51.142;4.780;2022-08-04T05:50:29;22.20;98.80
15930;DHT22;8064;51.142;4.780;2022-08-04T05:52:56;22.30;98.80
15930;DHT22;8064;51.142;4.780;2022-08-04T05:55:24;22.30;98.80
15930;DHT22;8064;51.142;4.780;2022-08-04T05:57:50;22.40;98.80
15930;DHT22;8064;51.142;4.780;2022-08-04T06:00:18;22.50;98.80
15930;DHT22;8064;51.142;4.780;2022-08-04T06:02:46;22.60;98.80
15930;DHT22;8064;51.142;4.780;2022-08-04T06:05:14;22.60;98.80
15930;DHT22;8064;51.142;4.780;2022-08-04T06:07:43;22.70;98.70
15930;DHT22;8064;51.142;4.780;2022-08-04T06:10:09;22.70;98.60
15930;DHT22;8064;51.142;4.780;2022-08-04T06:15:20;22.80;98.60
15930;DHT22;8064;51.142;4.780;2022-08-04T06:17:50;22.90;98.50
15930;DHT22;8064;51.142;4.780;2022-08-04T06:20:18;23.00;98.50
15930;DHT22;8064;51.142;4.780;2022-08-04T06:22:48;23.10;98.50
15930;DHT22;8064;51.142;4.780;2022-08-04T06:25:18;23.20;98.40
15930;DHT22;8064;51.142;4.780;2022-08-04T06:27:46;23.20;98.30
15930;DHT22;8064;51.142;4.780;2022-08-04T06:30:14;23.30;98.60
15930;DHT22;8064;51.142;4.780;2022-08-04T06:32:42;23.50;98.20
15930;DHT22;8064;51.142;4.780;2022-08-04T06:35:26;23.70;98.10
15930;DHT22;8064;51.142;4.780;2022-08-04T06:37:54;23.80;97.80
15930;DHT22;8064;51.142;4.780;2022-08-04T06:40:21;24.00;97.70
15930;DHT22;8064;51.142;4.780;2022-08-04T06:42:48;24.20;97.50
15930;DHT22;8064;51.142;4.780;2022-08-04T06:45:15;24.30;97.30
15930;DHT22;8064;51.142;4.780;2022-08-04T06:47:43;24.50;97.10
15930;DHT22;8064;51.142;4.780;2022-08-04T06:50:10;24.60;96.90
15930;DHT22;8064;51.142;4.780;2022-08-04T06:52:37;24.80;97.10
15930;DHT22;8064;51.142;4.780;2022-08-04T06:55:04;24.90;96.50
15930;DHT22;8064;51.142;4.780;2022-08-04T06:57:32;25.00;96.40
15930;DHT22;8064;51.142;4.780;2022-08-04T07:00:02;25.10;96.30
15930;DHT22;8064;51.142;4.780;2022-08-04T07:02:32;25.30;96.00
15930;DHT22;8064;51.142;4.780;2022-08-04T07:04:59;25.40;95.80
15930;DHT22;8064;51.142;4.780;2022-08-04T07:07:25;25.60;95.80
15930;DHT22;8064;51.142;4.780;2022-08-04T07:09:51;25.80;95.50
15930;DHT22;8064;51.142;4.780;2022-08-04T07:12:18;26.00;95.30
15930;DHT22;8064;51.142;4.780;2022-08-04T07:14:47;26.20;95.00
15930;DHT22;8064;51.142;4.780;2022-08-04T07:17:14;26.30;94.80
15930;DHT22;8064;51.142;4.780;2022-08-04T07:19:41;26.40;94.70
15930;DHT22;8064;51.142;4.780;2022-08-04T07:22:09;26.40;94.50
15930;DHT22;8064;51.142;4.780;2022-08-04T07:24:36;26.40;94.40
15930;DHT22;8064;51.142;4.780;2022-08-04T07:27:03;26.40;94.30
15930;DHT22;8064;51.142;4.780;2022-08-04T07:29:30;26.50;94.30
15930;DHT22;8064;51.142;4.780;2022-08-04T07:31:57;26.70;94.20
15930;DHT22;8064;51.142;4.780;2022-08-04T07:34:24;26.90;94.10
15930;DHT22;8064;51.142;4.780;2022-08-04T07:36:52;27.10;93.80
15930;DHT22;8064;51.142;4.780;2022-08-04T07:39:18;27.40;93.80
15930;DHT22;8064;51.142;4.780;2022-08-04T07:41:46;27.60;93.20
15930;DHT22;8064;51.142;4.780;2022-08-04T07:44:14;27.70;92.90
15930;DHT22;8064;51.142;4.780;2022-08-04T07:46:41;27.70;92.60
15930;DHT22;8064;51.142;4.780;2022-08-04T07:49:07;27.80;92.40
15930;DHT22;8064;51.142;4.780;2022-08-04T07:51:36;27.80;92.20
15930;DHT22;8064;51.142;4.780;2022-08-04T07:54:03;27.90;92.10
15930;DHT22;8064;51.142;4.780;2022-08-04T07:56:31;27.90;92.00
15930;DHT22;8064;51.142;4.780;2022-08-04T07:58:58;27.90;92.00
15930;DHT22;8064;51.142;4.780;2022-08-04T08:01:24;27.90;91.90
15930;DHT22;8064;51.142;4.780;2022-08-04T08:03:53;27.90;91.90
15930;DHT22;8064;51.142;4.780;2022-08-04T08:06:19;27.90;91.80
15930;DHT22;8064;51.142;4.780;2022-08-04T08:08:45;27.90;91.80
15930;DHT22;8064;51.142;4.780;2022-08-04T08:11:11;27.90;91.80
15930;DHT22;8064;51.142;4.780;2022-08-04T08:13:38;27.90;91.80
15930;DHT22;8064;51.142;4.780;2022-08-04T08:16:04;27.90;91.70
15930;DHT22;8064;51.142;4.780;2022-08-04T08:18:31;27.90;91.70
15930;DHT22;8064;51.142;4.780;2022-08-04T08:20:57;27.80;91.80
15930;DHT22;8064;51.142;4.780;2022-08-04T08:23:24;27.80;91.80
15930;DHT22;8064;51.142;4.780;2022-08-04T08:25:50;27.80;91.80
15930;DHT22;8064;51.142;4.780;2022-08-04T08:28:16;27.80;91.70
15930;DHT22;8064;51.142;4.780;2022-08-04T08:30:42;27.80;91.50
15930;DHT22;8064;51.142;4.780;2022-08-04T08:33:11;27.70;91.50
15930;DHT22;8064;51.142;4.780;2022-08-04T08:35:58;27.60;91.60
15930;DHT22;8064;51.142;4.780;2022-08-04T08:41:53;27.50;91.80
15930;DHT22;8064;51.142;4.780;2022-08-04T08:47:08;27.40;92.00
15930;DHT22;8064;51.142;4.780;2022-08-04T08:49:50;27.30;92.00
15930;DHT22;8064;51.142;4.780;2022-08-04T08:52:48;27.20;92.00
15930;DHT22;8064;51.142;4.780;2022-08-04T09:06:57;26.60;92.50
15930;DHT22;8064;51.142;4.780;2022-08-04T09:15:51;26.20;93.30
15930;DHT22;8064;51.142;4.780;2022-08-04T09:21:34;25.90;93.80
15930;DHT22;8064;51.142;4.780;2022-08-04T09:24:10;25.80;94.40
15930;DHT22;8064;51.142;4.780;2022-08-04T09:35:20;25.40;94.90
15930;DHT22;8064;51.142;4.780;2022-08-04T09:41:01;25.20;95.30
15930;DHT22;8064;51.142;4.780;2022-08-04T09:46:29;25.00;95.70
15930;DHT22;8064;51.142;4.780;2022-08-04T09:49:02;25.00;96.00
15930;DHT22;8064;51.142;4.780;2022-08-04T10:02:33;24.60;97.10
15930;DHT22;8064;51.142;4.780;2022-08-04T10:05:04;24.60;97.20
15930;DHT22;8064;51.142;4.780;2022-08-04T10:11:03;24.80;97.60
15930;DHT22;8064;51.142;4.780;2022-08-04T10:19:34;25.00;97.70
15930;DHT22;8064;51.142;4.780;2022-08-04T10:27:35;25.00;98.00
15930;DHT22;8064;51.142;4.780;2022-08-04T10:30:06;24.90;98.00
15930;DHT22;8064;51.142;4.780;2022-08-04T10:32:59;24.80;98.40
15930;DHT22;8064;51.142;4.780;2022-08-04T10:35:32;24.80;98.20
15930;DHT22;8064;51.142;4.780;2022-08-04T10:38:32;24.90;98.30
15930;DHT22;8064;51.142;4.780;2022-08-04T10:41:02;25.00;98.60
15930;DHT22;8064;51.142;4.780;2022-08-04T10:46:31;25.10;98.40
15930;DHT22;8064;51.142;4.780;2022-08-04T10:49:08;25.20;98.20
15930;DHT22;8064;51.142;4.780;2022-08-04T10:57:39;26.10;98.20
15930;DHT22;8064;51.142;4.780;2022-08-04T11:00:10;26.50;97.90
15930;DHT22;8064;51.142;4.780;2022-08-04T11:05:51;27.10;97.20
15930;DHT22;8064;51.142;4.780;2022-08-04T11:08:41;27.30;96.70
15930;DHT22;8064;51.142;4.780;2022-08-04T11:11:38;27.50;96.30
15930;DHT22;8064;51.142;4.780;2022-08-04T11:14:26;27.80;96.00
15930;DHT22;8064;51.142;4.780;2022-08-04T11:16:59;28.10;95.40
15930;DHT22;8064;51.142;4.780;2022-08-04T11:22:20;28.40;94.60
15930;DHT22;8064;51.142;4.780;2022-08-04T11:24:49;28.50;94.40
15930;DHT22;8064;51.142;4.780;2022-08-04T11:30:18;28.70;93.50
15930;DHT22;8064;51.142;4.780;2022-08-04T11:35:31;28.90;93.40
15930;DHT22;8064;51.142;4.780;2022-08-04T11:38:19;28.90;93.30
15930;DHT22;8064;51.142;4.780;2022-08-04T11:40:49;28.80;93.10
15930;DHT22;8064;51.142;4.780;2022-08-04T11:43:23;28.70;93.00
15930;DHT22;8064;51.142;4.780;2022-08-04T11:45:54;28.60;93.00
15930;DHT22;8064;51.142;4.780;2022-08-04T11:51:07;28.50;92.60
15930;DHT22;8064;51.142;4.780;2022-08-04T11:53:36;28.30;92.50
15930;DHT22;8064;51.142;4.780;2022-08-04T11:56:06;28.20;92.60
15930;DHT22;8064;51.142;4.780;2022-08-04T11:58:34;28.10;92.70
15930;DHT22;8064;51.142;4.780;2022-08-04T12:01:16;28.10;92.80
15930;DHT22;8064;51.142;4.780;2022-08-04T12:06:48;27.80;92.90
15930;DHT22;8064;51.142;4.780;2022-08-04T12:09:31;27.70;93.00
15930;DHT22;8064;51.142;4.780;2022-08-04T12:15:22;27.60;93.00
15930;DHT22;8064;51.142;4.780;2022-08-04T12:20:42;27.70;93.10
15930;DHT22;8064;51.142;4.780;2022-08-04T12:26:01;27.90;92.70
15930;DHT22;8064;51.142;4.780;2022-08-04T12:31:19;28.20;92.50
15930;DHT22;8064;51.142;4.780;2022-08-04T12:33:53;28.30;92.30
15930;DHT22;8064;51.142;4.780;2022-08-04T12:36:26;28.40;92.20
15930;DHT22;8064;51.142;4.780;2022-08-04T12:39:00;28.50;92.00
15930;DHT22;8064;51.142;4.780;2022-08-04T12:41:33;28.50;91.70
15930;DHT22;8064;51.142;4.780;2022-08-04T12:44:13;28.60;91.50
15930;DHT22;8064;51.142;4.780;2022-08-04T12:46:45;28.60;91.20
15930;DHT22;8064;51.142;4.780;2022-08-04T12:49:12;28.60;91.20
15930;DHT22;8064;51.142;4.780;2022-08-04T12:51:43;28.60;91.20
15930;DHT22;8064;51.142;4.780;2022-08-04T12:54:10;28.70;91.20
15930;DHT22;8064;51.142;4.780;2022-08-04T12:56:38;28.70;91.10
15930;DHT22;8064;51.142;4.780;2022-08-04T12:59:07;28.70;90.90
15930;DHT22;8064;51.142;4.780;2022-08-04T13:01:34;28.70;90.80
15930;DHT22;8064;51.142;4.780;2022-08-04T13:09:36;28.80;90.60
15930;DHT22;8064;51.142;4.780;2022-08-04T13:12:10;28.90;90.60
15930;DHT22;8064;51.142;4.780;2022-08-04T13:14:40;28.90;90.70
15930;DHT22;8064;51.142;4.780;2022-08-04T13:17:09;29.00;90.20
15930;DHT22;8064;51.142;4.780;2022-08-04T13:19:35;29.00;90.00
15930;DHT22;8064;51.142;4.780;2022-08-04T13:22:02;29.00;89.40
15930;DHT22;8064;51.142;4.780;2022-08-04T13:24:28;29.10;89.10
15930;DHT22;8064;51.142;4.780;2022-08-04T13:26:59;29.10;88.10
15930;DHT22;8064;51.142;4.780;2022-08-04T13:29:40;29.00;87.60
15930;DHT22;8064;51.142;4.780;2022-08-04T13:32:08;29.00;87.60
15930;DHT22;8064;51.142;4.780;2022-08-04T13:34:35;29.00;87.20
15930;DHT22;8064;51.142;4.780;2022-08-04T13:37:02;29.00;86.70
15930;DHT22;8064;51.142;4.780;2022-08-04T13:39:29;29.00;86.40
15930;DHT22;8064;51.142;4.780;2022-08-04T13:41:57;29.00;86.20
15930;DHT22;8064;51.142;4.780;2022-08-04T13:44:28;29.00;86.10
15930;DHT22;8064;51.142;4.780;2022-08-04T13:46:58;29.00;86.20
15930;DHT22;8064;51.142;4.780;2022-08-04T13:49:24;29.00;85.80
15930;DHT22;8064;51.142;4.780;2022-08-04T13:51:55;29.10;85.90
15930;DHT22;8064;51.142;4.780;2022-08-04T13:54:22;29.10;85.90
15930;DHT22;8064;51.142;4.780;2022-08-04T13:56:52;29.10;85.70
15930;DHT22;8064;51.142;4.780;2022-08-04T13:59:23;29.10;85.50
15930;DHT22;8064;51.142;4.780;2022-08-04T14:02:07;29.20;85.50
15930;DHT22;8064;51.142;4.780;2022-08-04T14:04:37;29.20;85.00
15930;DHT22;8064;51.142;4.780;2022-08-04T14:07:11;29.20;85.00
15930;DHT22;8064;51.142;4.780;2022-08-04T14:09:38;29.30;84.60
15930;DHT22;8064;51.142;4.780;2022-08-04T14:12:09;29.30;84.70
15930;DHT22;8064;51.142;4.780;2022-08-04T14:14:36;29.20;84.00
15930;DHT22;8064;51.142;4.780;2022-08-04T14:17:11;29.20;84.10
15930;DHT22;8064;51.142;4.780;2022-08-04T14:22:38;29.20;84.00
15930;DHT22;8064;51.142;4.780;2022-08-04T14:25:06;29.20;84.20
15930;DHT22;8064;51.142;4.780;2022-08-04T14:27:56;29.20;83.70
15930;DHT22;8064;51.142;4.780;2022-08-04T14:30:36;29.20;82.80
15930;DHT22;8064;51.142;4.780;2022-08-04T14:33:20;29.20;82.70
15930;DHT22;8064;51.142;4.780;2022-08-04T14:36:00;29.30;82.20
15930;DHT22;8064;51.142;4.780;2022-08-04T14:41:25;29.30;82.80
15930;DHT22;8064;51.142;4.780;2022-08-04T14:44:07;29.30;82.70
15930;DHT22;8064;51.142;4.780;2022-08-04T14:46:33;29.40;82.50
15930;DHT22;8064;51.142;4.780;2022-08-04T14:49:02;29.40;82.90
15930;DHT22;8064;51.142;4.780;2022-08-04T14:51:34;29.50;82.80
15930;DHT22;8064;51.142;4.780;2022-08-04T14:54:01;29.50;82.50
15930;DHT22;8064;51.142;4.780;2022-08-04T14:56:26;29.50;82.50
15930;DHT22;8064;51.142;4.780;2022-08-04T14:59:06;29.50;82.30
15930;DHT22;8064;51.142;4.780;2022-08-04T15:01:34;29.50;81.90
15930;DHT22;8064;51.142;4.780;2022-08-04T15:04:01;29.60;82.50
15930;DHT22;8064;51.142;4.780;2022-08-04T15:06:29;29.50;82.30
15930;DHT22;8064;51.142;4.780;2022-08-04T15:08:58;29.50;81.70
15930;DHT22;8064;51.142;4.780;2022-08-04T15:11:26;29.40;81.50
15930;DHT22;8064;51.142;4.780;2022-08-04T15:13:53;29.40;81.50
15930;DHT22;8064;51.142;4.780;2022-08-04T15:16:20;29.20;81.80
15930;DHT22;8064;51.142;4.780;2022-08-04T15:18:46;29.10;82.20
15930;DHT22;8064;51.142;4.780;2022-08-04T15:21:13;29.00;82.60
15930;DHT22;8064;51.142;4.780;2022-08-04T15:23:40;29.00;83.10
15930;DHT22;8064;51.142;4.780;2022-08-04T15:26:10;29.00;83.10
15930;DHT22;8064;51.142;4.780;2022-08-04T15:28:39;29.00;82.80
15930;DHT22;8064;51.142;4.780;2022-08-04T15:31:07;29.00;82.90
15930;DHT22;8064;51.142;4.780;2022-08-04T15:33:34;29.00;83.00
15930;DHT22;8064;51.142;4.780;2022-08-04T15:36:20;29.00;82.90
15930;DHT22;8064;51.142;4.780;2022-08-04T15:47:33;29.00;82.70
15930;DHT22;8064;51.142;4.780;2022-08-04T15:50:14;29.00;82.70
15930;DHT22;8064;51.142;4.780;2022-08-04T15:52:59;29.00;82.20
15930;DHT22;8064;51.142;4.780;2022-08-04T15:55:42;29.00;82.30
15930;DHT22;8064;51.142;4.780;2022-08-04T15:58:09;29.00;82.20
15930;DHT22;8064;51.142;4.780;2022-08-04T16:05:58;29.00;81.40
15930;DHT22;8064;51.142;4.780;2022-08-04T16:08:24;29.00;81.60
15930;DHT22;8064;51.142;4.780;2022-08-04T16:10:50;28.90;81.70
15930;DHT22;8064;51.142;4.780;2022-08-04T16:13:19;28.90;81.80
15930;DHT22;8064;51.142;4.780;2022-08-04T16:20:55;28.70;82.30
15930;DHT22;8064;51.142;4.780;2022-08-04T16:25:47;28.70;82.60
15930;DHT22;8064;51.142;4.780;2022-08-04T16:28:41;28.70;82.50
15930;DHT22;8064;51.142;4.780;2022-08-04T16:31:09;28.70;82.40
15930;DHT22;8064;51.142;4.780;2022-08-04T16:33:36;28.70;82.60
15930;DHT22;8064;51.142;4.780;2022-08-04T16:36:05;28.70;82.50
15930;DHT22;8064;51.142;4.780;2022-08-04T16:38:31;28.70;82.20
15930;DHT22;8064;51.142;4.780;2022-08-04T16:40:59;28.70;82.10
15930;DHT22;8064;51.142;4.780;2022-08-04T16:43:28;28.60;81.90
15930;DHT22;8064;51.142;4.780;2022-08-04T16:48:38;28.60;81.90
15930;DHT22;8064;51.142;4.780;2022-08-04T16:51:06;28.60;81.80
15930;DHT22;8064;51.142;4.780;2022-08-04T16:56:00;28.50;81.60
15930;DHT22;8064;51.142;4.780;2022-08-04T16:58:29;28.50;81.60
15930;DHT22;8064;51.142;4.780;2022-08-04T17:00:56;28.40;81.50
15930;DHT22;8064;51.142;4.780;2022-08-04T17:03:23;28.30;81.50
15930;DHT22;8064;51.142;4.780;2022-08-04T17:05:49;28.30;81.60
15930;DHT22;8064;51.142;4.780;2022-08-04T17:08:15;28.30;82.40
15930;DHT22;8064;51.142;4.780;2022-08-04T17:10:46;28.20;81.60
15930;DHT22;8064;51.142;4.780;2022-08-04T17:13:32;28.10;81.50
15930;DHT22;8064;51.142;4.780;2022-08-04T17:16:00;28.10;81.90
15930;DHT22;8064;51.142;4.780;2022-08-04T17:18:30;28.00;81.90
15930;DHT22;8064;51.142;4.780;2022-08-04T17:20:58;27.90;82.00
15930;DHT22;8064;51.142;4.780;2022-08-04T17:23:37;27.90;82.00
15930;DHT22;8064;51.142;4.780;2022-08-04T17:26:06;27.80;82.10
15930;DHT22;8064;51.142;4.780;2022-08-04T17:28:32;27.80;82.60
15930;DHT22;8064;51.142;4.780;2022-08-04T17:31:00;27.70;82.30
15930;DHT22;8064;51.142;4.780;2022-08-04T17:33:26;27.60;82.60
15930;DHT22;8064;51.142;4.780;2022-08-04T17:35:55;27.60;82.80
15930;DHT22;8064;51.142;4.780;2022-08-04T17:38:24;27.50;83.00
15930;DHT22;8064;51.142;4.780;2022-08-04T17:41:12;27.50;83.20
15930;DHT22;8064;51.142;4.780;2022-08-04T17:43:41;27.30;83.20
15930;DHT22;8064;51.142;4.780;2022-08-04T17:46:33;27.30;83.40
15930;DHT22;8064;51.142;4.780;2022-08-04T17:49:30;27.20;83.70
15930;DHT22;8064;51.142;4.780;2022-08-04T17:51:57;27.10;83.80
15930;DHT22;8064;51.142;4.780;2022-08-04T17:56:53;27.00;83.90
15930;DHT22;8064;51.142;4.780;2022-08-04T17:59:40;26.90;83.80
15930;DHT22;8064;51.142;4.780;2022-08-04T18:02:07;26.90;83.70
15930;DHT22;8064;51.142;4.780;2022-08-04T18:04:49;26.80;83.80
15930;DHT22;8064;51.142;4.780;2022-08-04T18:07:19;26.70;83.80
15930;DHT22;8064;51.142;4.780;2022-08-04T18:12:31;26.60;84.00
15930;DHT22;8064;51.142;4.780;2022-08-04T18:14:59;26.60;84.10
15930;DHT22;8064;51.142;4.780;2022-08-04T18:17:42;26.50;84.20
15930;DHT22;8064;51.142;4.780;2022-08-04T18:20:12;26.50;84.40
15930;DHT22;8064;51.142;4.780;2022-08-04T18:22:40;26.40;84.40
15930;DHT22;8064;51.142;4.780;2022-08-04T18:25:07;26.40;84.60
15930;DHT22;8064;51.142;4.780;2022-08-04T18:27:34;26.30;84.50
15930;DHT22;8064;51.142;4.780;2022-08-04T18:30:00;26.30;84.50
15930;DHT22;8064;51.142;4.780;2022-08-04T18:32:27;26.20;84.50
15930;DHT22;8064;51.142;4.780;2022-08-04T18:34:53;26.20;84.50
15930;DHT22;8064;51.142;4.780;2022-08-04T18:37:19;26.10;84.60
15930;DHT22;8064;51.142;4.780;2022-08-04T18:39:45;26.10;84.70
15930;DHT22;8064;51.142;4.780;2022-08-04T18:42:12;26.00;84.70
15930;DHT22;8064;51.142;4.780;2022-08-04T18:44:37;25.90;84.70
15930;DHT22;8064;51.142;4.780;2022-08-04T18:47:04;25.90;85.90
15930;DHT22;8064;51.142;4.780;2022-08-04T18:49:30;25.80;85.90
15930;DHT22;8064;51.142;4.780;2022-08-04T18:51:56;25.70;86.60
15930;DHT22;8064;51.142;4.780;2022-08-04T18:54:23;25.60;86.80
15930;DHT22;8064;51.142;4.780;2022-08-04T18:56:51;25.50;86.70
15930;DHT22;8064;51.142;4.780;2022-08-04T18:59:17;25.40;86.70
15930;DHT22;8064;51.142;4.780;2022-08-04T19:01:43;25.30;87.30
15930;DHT22;8064;51.142;4.780;2022-08-04T19:04:10;25.20;88.20
15930;DHT22;8064;51.142;4.780;2022-08-04T19:06:36;25.10;89.30
15930;DHT22;8064;51.142;4.780;2022-08-04T19:09:03;24.90;90.00
15930;DHT22;8064;51.142;4.780;2022-08-04T19:11:31;24.80;90.30
15930;DHT22;8064;51.142;4.780;2022-08-04T19:13:59;24.70;90.60
15930;DHT22;8064;51.142;4.780;2022-08-04T19:16:27;24.50;90.80
15930;DHT22;8064;51.142;4.780;2022-08-04T19:18:53;24.40;91.10
15930;DHT22;8064;51.142;4.780;2022-08-04T19:21:18;24.30;91.40
15930;DHT22;8064;51.142;4.780;2022-08-04T19:23:44;24.20;91.50
15930;DHT22;8064;51.142;4.780;2022-08-04T19:26:11;24.10;91.60
15930;DHT22;8064;51.142;4.780;2022-08-04T19:28:37;24.10;91.80
15930;DHT22;8064;51.142;4.780;2022-08-04T19:31:05;24.00;91.80
15930;DHT22;8064;51.142;4.780;2022-08-04T19:33:31;23.90;92.00
15930;DHT22;8064;51.142;4.780;2022-08-04T19:35:57;23.90;92.10
15930;DHT22;8064;51.142;4.780;2022-08-04T19:38:23;23.90;92.20
15930;DHT22;8064;51.142;4.780;2022-08-04T19:40:49;23.80;92.20
15930;DHT22;8064;51.142;4.780;2022-08-04T19:43:15;23.80;92.40
15930;DHT22;8064;51.142;4.780;2022-08-04T19:45:41;23.80;92.60
15930;DHT22;8064;51.142;4.780;2022-08-04T19:48:07;23.80;92.80
15930;DHT22;8064;51.142;4.780;2022-08-04T19:50:33;23.70;92.90
15930;DHT22;8064;51.142;4.780;2022-08-04T19:52:59;23.70;92.90
15930;DHT22;8064;51.142;4.780;2022-08-04T19:55:24;23.70;92.90
15930;DHT22;8064;51.142;4.780;2022-08-04T19:57:51;23.70;92.90
15930;DHT22;8064;51.142;4.780;2022-08-04T20:00:18;23.70;93.00
15930;DHT22;8064;51.142;4.780;2022-08-04T20:02:44;23.60;93.10
15930;DHT22;8064;51.142;4.780;2022-08-04T20:05:11;23.60;93.30
15930;DHT22;8064;51.142;4.780;2022-08-04T20:07:37;23.50;93.50
15930;DHT22;8064;51.142;4.780;2022-08-04T20:10:04;23.40;93.70
15930;DHT22;8064;51.142;4.780;2022-08-04T20:12:30;23.30;94.00
15930;DHT22;8064;51.142;4.780;2022-08-04T20:14:56;23.20;94.20
15930;DHT22;8064;51.142;4.780;2022-08-04T20:17:22;23.10;94.40
15930;DHT22;8064;51.142;4.780;2022-08-04T20:19:48;23.10;94.70
15930;DHT22;8064;51.142;4.780;2022-08-04T20:22:13;23.00;95.00
15930;DHT22;8064;51.142;4.780;2022-08-04T20:24:41;22.90;95.10
15930;DHT22;8064;51.142;4.780;2022-08-04T20:27:08;22.80;95.30
15930;DHT22;8064;51.142;4.780;2022-08-04T20:29:33;22.70;95.60
15930;DHT22;8064;51.142;4.780;2022-08-04T20:31:59;22.60;95.80
15930;DHT22;8064;51.142;4.780;2022-08-04T20:34:25;22.50;96.00
15930;DHT22;8064;51.142;4.780;2022-08-04T20:36:51;22.50;96.20
15930;DHT22;8064;51.142;4.780;2022-08-04T20:39:16;22.40;96.30
15930;DHT22;8064;51.142;4.780;2022-08-04T20:41:42;22.30;96.40